Time;durP1;ratioP1;P1;durP2;ratioP2;P2;SDS_P1;SDS_P2;PMS_P1;PMS_P2;Temp;Humidity;BMP_temperature;BMP_pressure;BME280_temperature;BME280_humidity;BME280_pressure;Samples;Min_cycle;Max_cycle;Signal;HPM_P1;HPM_P2
2021/12/11 00:01:19;;;;;;;10.03;6.10;;;;;-0.50;99806.00;;;;4977704;28;20248;-72
2021/12/11 00:04:12;;;;;;;9.97;6.20;;;;;-0.50;99817.00;;;;4988082;28;20229;-74
2021/12/11 00:07:02;;;;;;;9.37;6.20;;;;;-0.40;99811.00;;;;4990457;28;20313;-74
2021/12/11 00:09:51;;;;;;;9.37;6.30;;;;;-0.60;99810.00;;;;4976215;28;20230;-70
2021/12/11 00:12:44;;;;;;;11.70;5.87;;;;;-0.50;99795.00;;;;4991987;28;20238;-71
2021/12/11 00:15:35;;;;;;;8.63;5.63;;;;;-0.60;99830.00;;;;4999591;28;20234;-71
2021/12/11 00:18:25;;;;;;;10.00;6.30;;;;;-0.70;99832.00;;;;5018485;28;20241;-72
2021/12/11 00:21:15;;;;;;;10.30;5.87;;;;;-0.70;99835.00;;;;5004560;28;20718;-71
2021/12/11 00:24:04;;;;;;;9.30;5.87;;;;;-0.60;99825.00;;;;4986295;28;20306;-72
2021/12/11 00:26:55;;;;;;;7.60;5.83;;;;;-0.60;99838.00;;;;4984712;28;20284;-71
2021/12/11 00:29:42;;;;;;;11.07;6.20;;;;;-0.70;99830.00;;;;4989540;28;20227;-71
2021/12/11 00:32:32;;;;;;;11.30;5.77;;;;;-0.80;99837.00;;;;5016981;28;20364;-72
2021/12/11 00:35:20;;;;;;;10.80;5.87;;;;;-0.80;99853.00;;;;4993182;28;20259;-73
2021/12/11 00:38:11;;;;;;;10.83;6.30;;;;;-0.60;99831.00;;;;5008902;28;20289;-71
2021/12/11 00:40:57;;;;;;;10.50;6.13;;;;;-0.70;99860.00;;;;4994023;28;20232;-72
2021/12/11 00:43:44;;;;;;;10.37;6.33;;;;;-0.70;99865.00;;;;4982111;28;20230;-71
2021/12/11 00:46:33;;;;;;;8.93;6.50;;;;;-0.70;99876.00;;;;4996008;28;20230;-70
2021/12/11 00:49:22;;;;;;;12.33;6.70;;;;;-0.80;99885.00;;;;4989088;28;20242;-72
2021/12/11 00:52:08;;;;;;;16.23;5.97;;;;;-1.00;99869.00;;;;5003018;28;20230;-74
2021/12/11 00:54:55;;;;;;;12.53;6.40;;;;;-0.90;99887.00;;;;5008816;28;20238;-71
2021/12/11 00:57:42;;;;;;;14.27;6.33;;;;;-0.80;99896.00;;;;5008229;28;20226;-71
2021/12/11 01:00:29;;;;;;;10.63;6.03;;;;;-0.90;99905.00;;;;4997292;28;20915;-70
2021/12/11 01:03:20;;;;;;;10.10;6.40;;;;;-0.90;99910.00;;;;4995281;28;20234;-70
2021/12/11 01:06:12;;;;;;;12.20;6.63;;;;;-0.90;99918.00;;;;5007064;28;20230;-71
2021/12/11 01:09:09;;;;;;;9.00;6.10;;;;;-1.00;99921.00;;;;4986097;28;20238;-71
2021/12/11 01:12:12;;;;;;;10.03;6.00;;;;;-1.00;99931.00;;;;5002136;28;20230;-72
2021/12/11 01:15:05;;;;;;;9.80;6.40;;;;;-0.90;99939.00;;;;4987713;28;20273;-72
2021/12/11 01:18:02;;;;;;;8.20;6.53;;;;;-1.00;99945.00;;;;4988212;28;20234;-72
2021/12/11 01:21:00;;;;;;;9.10;6.13;;;;;-1.10;99947.00;;;;4984823;28;20297;-71
2021/12/11 01:24:07;;;;;;;12.53;6.47;;;;;-1.10;99961.00;;;;5007643;28;20226;-71
2021/12/11 01:26:55;;;;;;;8.43;6.33;;;;;-1.10;99968.00;;;;4998400;28;20229;-72
2021/12/11 01:29:42;;;;;;;14.43;7.17;;;;;-1.10;99979.00;;;;5019269;28;20288;-72
2021/12/11 01:32:31;;;;;;;12.13;5.90;;;;;-1.20;99985.00;;;;5017881;28;20225;-71
2021/12/11 01:35:18;;;;;;;11.50;6.63;;;;;-1.10;99999.00;;;;5020090;28;20359;-73
2021/12/11 01:38:08;;;;;;;9.47;5.70;;;;;-1.10;100004.00;;;;5005281;28;20238;-72
2021/12/11 01:40:58;;;;;;;8.27;5.97;;;;;-1.10;100002.00;;;;4980246;28;20366;-72
2021/12/11 01:43:47;;;;;;;12.00;6.17;;;;;-1.00;100012.00;;;;4980678;28;20227;-71
2021/12/11 01:46:33;;;;;;;7.93;5.63;;;;;-1.10;100009.00;;;;5015056;28;20307;-74
2021/12/11 01:49:22;;;;;;;9.37;5.70;;;;;-1.20;100019.00;;;;4992031;28;20725;-73
2021/12/11 01:52:11;;;;;;;9.60;5.73;;;;;-1.00;99998.00;;;;4994088;28;20697;-72
2021/12/11 01:54:59;;;;;;;9.50;6.07;;;;;-1.20;100029.00;;;;4982615;28;20235;-71
2021/12/11 01:57:50;;;;;;;10.60;5.73;;;;;-1.20;100039.00;;;;4992885;28;20317;-72
2021/12/11 02:00:40;;;;;;;9.97;6.07;;;;;-1.10;100052.00;;;;4988562;28;20233;-74
2021/12/11 02:03:31;;;;;;;8.70;5.70;;;;;-1.20;100061.00;;;;5006308;28;20755;-72
2021/12/11 02:06:18;;;;;;;10.83;5.40;;;;;-1.20;100059.00;;;;5002926;28;20597;-70
2021/12/11 02:09:14;;;;;;;9.43;5.90;;;;;-1.30;100067.00;;;;4998991;28;20376;-71
2021/12/11 02:12:06;;;;;;;12.40;6.07;;;;;-1.30;100068.00;;;;5000034;28;20878;-72
2021/12/11 02:14:55;;;;;;;8.20;5.43;;;;;-1.30;100086.00;;;;5018050;28;20613;-71
2021/12/11 02:17:45;;;;;;;11.33;6.20;;;;;-1.20;100092.00;;;;5010969;28;20248;-71
2021/12/11 02:20:41;;;;;;;10.27;6.17;;;;;-1.20;100096.00;;;;4991590;28;20235;-71
2021/12/11 02:23:29;;;;;;;11.23;7.07;;;;;-1.40;100094.00;;;;4980779;28;20234;-71
2021/12/11 02:26:16;;;;;;;10.33;5.70;;;;;-1.30;100111.00;;;;4982780;28;20235;-71
2021/12/11 02:29:08;;;;;;;9.73;5.90;;;;;-1.40;100104.00;;;;4979062;28;20232;-72
2021/12/11 02:32:01;;;;;;;11.97;6.63;;;;;-1.30;100104.00;;;;4979698;28;20235;-73
2021/12/11 02:34:52;;;;;;;9.27;5.67;;;;;-1.40;100106.00;;;;4985732;28;20601;-71
2021/12/11 02:37:45;;;;;;;8.60;5.60;;;;;-1.40;100109.00;;;;4982739;28;20313;-70
2021/12/11 02:40:37;;;;;;;11.93;5.70;;;;;-1.30;100119.00;;;;4978087;28;20231;-71
2021/12/11 02:43:27;;;;;;;13.00;6.30;;;;;-1.40;100118.00;;;;4976560;28;20235;-72
2021/12/11 02:46:20;;;;;;;10.33;5.73;;;;;-1.40;100130.00;;;;4978423;28;20607;-71
2021/12/11 02:49:09;;;;;;;10.20;5.77;;;;;-1.60;100119.00;;;;4971851;28;20235;-73
2021/12/11 02:52:01;;;;;;;8.33;5.63;;;;;-1.60;100127.00;;;;4998052;28;20249;-71
2021/12/11 02:54:52;;;;;;;9.57;6.00;;;;;-1.50;100132.00;;;;4999857;28;20230;-75
2021/12/11 02:57:45;;;;;;;10.10;5.80;;;;;-1.50;100135.00;;;;5006073;28;20365;-72
2021/12/11 03:00:36;;;;;;;9.67;5.83;;;;;-1.60;100141.00;;;;5006366;28;20995;-74
2021/12/11 03:03:30;;;;;;;12.00;6.47;;;;;-1.60;100141.00;;;;5003191;28;20297;-73
2021/12/11 03:06:20;;;;;;;7.87;5.83;;;;;-1.60;100154.00;;;;5005977;28;20281;-73
2021/12/11 03:09:11;;;;;;;10.17;6.00;;;;;-1.50;100153.00;;;;5004531;28;20260;-73
2021/12/11 03:12:00;;;;;;;8.07;5.43;;;;;-1.50;100093.00;;;;5001526;28;20798;-73
2021/12/11 03:14:48;;;;;;;9.20;5.67;;;;;-1.40;100158.00;;;;4997382;28;20585;-74
2021/12/11 03:17:35;;;;;;;11.63;6.83;;;;;-1.50;100157.00;;;;4993306;28;20230;-76
2021/12/11 03:20:25;;;;;;;14.33;6.53;;;;;-1.30;100165.00;;;;5003573;28;20276;-73
2021/12/11 03:23:12;;;;;;;13.50;6.47;;;;;-1.50;100171.00;;;;4998063;28;20269;-73
2021/12/11 03:25:58;;;;;;;16.37;6.70;;;;;-1.40;100171.00;;;;5004544;28;20250;-73
2021/12/11 03:28:45;;;;;;;10.27;6.77;;;;;-1.50;100178.00;;;;4998929;28;20225;-73
2021/12/11 03:31:36;;;;;;;13.03;6.40;;;;;-1.50;100200.00;;;;5004514;28;20240;-75
2021/12/11 03:34:25;;;;;;;12.67;7.40;;;;;-1.40;100191.00;;;;5006279;28;20229;-73
2021/12/11 03:37:15;;;;;;;13.30;7.73;;;;;-1.40;100199.00;;;;5006135;28;20241;-76
2021/12/11 03:40:02;;;;;;;12.07;7.40;;;;;-1.50;100204.00;;;;5001178;28;20222;-73
2021/12/11 03:42:51;;;;;;;14.47;7.27;;;;;-1.50;100206.00;;;;4998511;28;20575;-73
2021/12/11 03:45:40;;;;;;;11.60;7.50;;;;;-1.70;100209.00;;;;5006328;28;20221;-73
2021/12/11 03:48:33;;;;;;;12.17;7.33;;;;;-1.60;100225.00;;;;5008918;28;20293;-73
2021/12/11 03:51:36;;;;;;;11.70;7.30;;;;;-1.60;100204.00;;;;4987039;28;20310;-72
2021/12/11 03:54:26;;;;;;;11.97;6.83;;;;;-1.50;100214.00;;;;5017400;28;20739;-72
2021/12/11 03:57:17;;;;;;;11.03;7.77;;;;;-1.70;100233.00;;;;5012060;28;20724;-73
2021/12/11 04:00:06;;;;;;;9.73;7.37;;;;;-1.60;100246.00;;;;5003990;28;20590;-74
2021/12/11 04:02:59;;;;;;;12.57;7.47;;;;;-1.50;100236.00;;;;4983238;28;21041;-73
2021/12/11 04:05:48;;;;;;;12.37;7.70;;;;;-1.40;100248.00;;;;4985522;28;20226;-73
2021/12/11 04:08:40;;;;;;;14.07;8.80;;;;;-1.50;100223.00;;;;5015501;28;20319;-73
2021/12/11 04:11:32;;;;;;;19.57;7.93;;;;;-1.50;100261.00;;;;5016478;28;20296;-73
2021/12/11 04:14:23;;;;;;;13.53;7.77;;;;;-1.70;100228.00;;;;5010369;28;20230;-73
2021/12/11 04:17:14;;;;;;;13.17;8.07;;;;;-1.70;100258.00;;;;5020918;28;20225;-73
2021/12/11 04:20:06;;;;;;;14.80;8.53;;;;;-1.70;100269.00;;;;5007437;28;20244;-74
2021/12/11 04:22:54;;;;;;;15.53;7.00;;;;;-1.80;100278.00;;;;5011385;28;20225;-75
2021/12/11 04:25:43;;;;;;;16.40;8.60;;;;;-1.80;100282.00;;;;5018599;28;20222;-73
2021/12/11 04:28:32;;;;;;;14.50;8.07;;;;;-1.80;100277.00;;;;5025227;28;20238;-72
2021/12/11 04:31:24;;;;;;;9.60;7.00;;;;;-1.80;100287.00;;;;5009781;28;20234;-73
2021/12/11 04:34:13;;;;;;;11.50;7.73;;;;;-1.80;100283.00;;;;5015942;28;20233;-73
2021/12/11 04:37:10;;;;;;;11.37;6.73;;;;;-1.70;100288.00;;;;5004081;28;20619;-73
2021/12/11 04:40:02;;;;;;;11.57;7.40;;;;;-1.70;100296.00;;;;5002981;28;20584;-73
2021/12/11 04:42:56;;;;;;;14.70;7.00;;;;;-1.80;100303.00;;;;4986965;28;20230;-73
2021/12/11 04:45:48;;;;;;;9.97;6.93;;;;;-1.90;100303.00;;;;5022038;28;20254;-73
2021/12/11 04:48:46;;;;;;;14.53;7.27;;;;;-1.90;100310.00;;;;4987963;28;20251;-72
2021/12/11 04:51:42;;;;;;;14.37;7.30;;;;;-1.70;100308.00;;;;4986558;28;20238;-74
2021/12/11 04:54:40;;;;;;;13.00;7.73;;;;;-1.70;100289.00;;;;5023520;28;20300;-72
2021/12/11 04:57:58;;;;;;;15.83;7.20;;;;;-1.80;100323.00;;;;5014174;28;20373;-73
2021/12/11 05:00:59;;;;;;;12.27;7.10;;;;;-1.70;100332.00;;;;5017386;28;20221;-73
2021/12/11 05:04:10;;;;;;;10.60;6.77;;;;;-1.80;100335.00;;;;4997977;28;20229;-72
2021/12/11 05:07:03;;;;;;;13.13;6.87;;;;;-1.80;100338.00;;;;5003737;28;20269;-74
2021/12/11 05:09:57;;;;;;;14.90;6.80;;;;;-1.80;100322.00;;;;4986637;28;20581;-72
2021/12/11 05:12:51;;;;;;;14.63;7.90;;;;;-1.90;100344.00;;;;4987038;28;20222;-71
2021/12/11 05:15:40;;;;;;;12.87;6.47;;;;;-1.90;100351.00;;;;5010844;28;20844;-73
2021/12/11 05:18:29;;;;;;;14.70;7.10;;;;;-1.90;100357.00;;;;5013869;28;20688;-73
2021/12/11 05:21:18;;;;;;;15.73;7.83;;;;;-1.70;100366.00;;;;5017367;28;20287;-72
2021/12/11 05:24:06;;;;;;;12.63;7.40;;;;;-1.80;100365.00;;;;5002317;28;20230;-72
2021/12/11 05:26:52;;;;;;;14.70;7.40;;;;;-1.90;100378.00;;;;4982928;28;20229;-72
2021/12/11 05:29:42;;;;;;;12.80;8.23;;;;;-1.90;100368.00;;;;5010595;28;20237;-73
2021/12/11 05:32:29;;;;;;;11.67;7.13;;;;;-2.00;100387.00;;;;4984185;28;20364;-72
2021/12/11 05:35:17;;;;;;;13.47;7.10;;;;;-1.90;100341.00;;;;5013622;28;20307;-72
2021/12/11 05:38:05;;;;;;;14.07;8.20;;;;;-1.70;100399.00;;;;5010405;28;20230;-73
2021/12/11 05:40:56;;;;;;;13.67;7.40;;;;;-1.80;100392.00;;;;4981973;28;20253;-72
2021/12/11 05:43:44;;;;;;;13.77;8.90;;;;;-1.80;100406.00;;;;5010408;28;20771;-73
2021/12/11 05:46:32;;;;;;;10.47;7.27;;;;;-1.80;100415.00;;;;4988156;28;20230;-72
2021/12/11 05:49:18;;;;;;;14.23;7.80;;;;;-1.80;100408.00;;;;5010545;28;20340;-73
2021/12/11 05:52:08;;;;;;;11.97;7.33;;;;;-1.90;100425.00;;;;4999771;28;20744;-71
2021/12/11 05:54:55;;;;;;;15.67;8.40;;;;;-1.90;100428.00;;;;4982877;28;20298;-74
2021/12/11 05:57:49;;;;;;;14.80;8.73;;;;;-1.90;100429.00;;;;5009782;28;20234;-75
2021/12/11 06:00:39;;;;;;;11.53;7.40;;;;;-1.90;100443.00;;;;5009629;28;20245;-73
2021/12/11 06:03:27;;;;;;;19.37;8.53;;;;;-1.70;100442.00;;;;5007266;28;20718;-72
2021/12/11 06:06:13;;;;;;;18.07;7.53;;;;;-1.80;100448.00;;;;5015119;28;20229;-72
2021/12/11 06:09:00;;;;;;;13.80;7.43;;;;;-1.90;100443.00;;;;5005157;28;20237;-73
2021/12/11 06:11:49;;;;;;;16.10;7.93;;;;;-1.90;100447.00;;;;5001433;28;20237;-73
2021/12/11 06:14:35;;;;;;;12.87;8.07;;;;;-1.80;100465.00;;;;5021570;28;20373;-73
2021/12/11 06:17:24;;;;;;;13.93;8.07;;;;;-1.80;100458.00;;;;5009182;28;20241;-72
2021/12/11 06:20:16;;;;;;;15.27;8.83;;;;;-1.60;100456.00;;;;5016141;28;20225;-71
2021/12/11 06:23:02;;;;;;;15.60;8.67;;;;;-1.60;100471.00;;;;5006919;28;20236;-72
2021/12/11 06:25:50;;;;;;;12.80;7.53;;;;;-1.60;100475.00;;;;5007164;28;20593;-69
2021/12/11 06:28:36;;;;;;;17.17;8.33;;;;;-1.60;100478.00;;;;5015658;28;20229;-72
2021/12/11 06:31:23;;;;;;;13.97;8.40;;;;;-1.50;100492.00;;;;4991334;28;20241;-72
2021/12/11 06:34:09;;;;;;;15.57;8.33;;;;;-1.50;100470.00;;;;5006940;28;20231;-70
2021/12/11 06:36:57;;;;;;;13.43;8.03;;;;;-1.50;100498.00;;;;4985302;28;20286;-73
2021/12/11 06:39:43;;;;;;;13.97;8.20;;;;;-1.50;100504.00;;;;4984745;28;20262;-71
2021/12/11 06:42:34;;;;;;;18.83;9.73;;;;;-1.40;100498.00;;;;5011059;28;20325;-70
2021/12/11 06:45:21;;;;;;;19.43;9.67;;;;;-1.40;100506.00;;;;5013774;28;20715;-72
2021/12/11 06:48:07;;;;;;;18.60;9.80;;;;;-1.20;100483.00;;;;4982538;28;20247;-73
2021/12/11 06:50:54;;;;;;;20.57;11.43;;;;;-1.10;100513.00;;;;4978394;28;20242;-72
2021/12/11 06:53:46;;;;;;;20.90;10.77;;;;;-1.10;100523.00;;;;5014707;28;20740;-71
2021/12/11 06:56:33;;;;;;;28.63;11.93;;;;;-1.00;100525.00;;;;4991909;28;20230;-71
2021/12/11 06:59:19;;;;;;;31.93;13.53;;;;;-0.80;100534.00;;;;4986625;28;20241;-74
2021/12/11 07:02:07;;;;;;;27.77;13.40;;;;;-0.80;100546.00;;;;5005146;28;20333;-71
2021/12/11 07:04:55;;;;;;;24.43;12.77;;;;;-0.80;100551.00;;;;4982391;28;20317;-71
2021/12/11 07:07:43;;;;;;;29.90;12.67;;;;;-0.50;100573.00;;;;5004744;28;20249;-73
2021/12/11 07:10:30;;;;;;;26.53;13.73;;;;;-0.70;100579.00;;;;4997053;28;20266;-71
2021/12/11 07:13:17;;;;;;;27.80;13.20;;;;;-0.70;100560.00;;;;5003337;28;20720;-72
2021/12/11 07:16:05;;;;;;;31.80;12.57;;;;;-0.60;100571.00;;;;4980705;28;20242;-71
2021/12/11 07:18:51;;;;;;;27.47;13.87;;;;;-0.50;100578.00;;;;4969905;28;20247;-72
2021/12/11 07:21:38;;;;;;;33.87;13.60;;;;;-0.40;100593.00;;;;4979085;28;20913;-72
2021/12/11 07:24:30;;;;;;;25.17;12.77;;;;;-0.60;100592.00;;;;4978151;28;20235;-73
2021/12/11 07:27:18;;;;;;;37.13;13.33;;;;;-0.40;100607.00;;;;4998585;28;20242;-73
2021/12/11 07:30:05;;;;;;;31.50;13.50;;;;;-0.50;100626.00;;;;4992954;28;20713;-72
2021/12/11 07:32:53;;;;;;;32.20;13.17;;;;;-0.50;100626.00;;;;5008509;28;20256;-72
2021/12/11 07:35:41;;;;;;;32.10;13.40;;;;;-0.50;100633.00;;;;5007358;28;20314;-75
2021/12/11 07:38:28;;;;;;;30.70;13.87;;;;;-0.40;100639.00;;;;5008817;28;20287;-71
2021/12/11 07:41:16;;;;;;;32.83;15.30;;;;;-0.40;100643.00;;;;4990083;28;20304;-73
2021/12/11 07:44:04;;;;;;;47.90;17.73;;;;;-0.40;100647.00;;;;5004172;28;20280;-72
2021/12/11 07:46:52;;;;;;;39.57;15.77;;;;;-0.40;100654.00;;;;5000023;28;20234;-72
2021/12/11 07:49:38;;;;;;;45.83;16.47;;;;;-0.40;100665.00;;;;4989663;28;20757;-74
2021/12/11 07:52:25;;;;;;;40.57;16.70;;;;;-0.30;100663.00;;;;4984972;28;20233;-73
2021/12/11 07:55:11;;;;;;;39.47;16.83;;;;;-0.30;100675.00;;;;5010496;28;20587;-72
2021/12/11 07:57:58;;;;;;;51.87;16.50;;;;;-0.20;100678.00;;;;4984346;28;20638;-72
2021/12/11 08:00:49;;;;;;;51.90;17.97;;;;;-0.10;100686.00;;;;4996148;28;20226;-72
2021/12/11 08:03:37;;;;;;;50.07;17.93;;;;;-0.20;100697.00;;;;4999739;28;20226;-72
2021/12/11 08:06:24;;;;;;;50.83;17.50;;;;;-0.10;100676.00;;;;4993379;28;20226;-72
2021/12/11 08:09:14;;;;;;;51.13;19.40;;;;;0.00;100690.00;;;;5016608;28;20283;-72
2021/12/11 08:12:00;;;;;;;62.63;19.17;;;;;0.10;100701.00;;;;5006593;28;20237;-72
2021/12/11 08:14:47;;;;;;;46.07;18.70;;;;;0.10;100693.00;;;;4988941;28;20273;-72
2021/12/11 08:17:34;;;;;;;50.90;18.00;;;;;0.10;100700.00;;;;5005677;28;20254;-72
2021/12/11 08:20:25;;;;;;;49.43;18.13;;;;;0.10;100704.00;;;;5005674;28;20225;-72
2021/12/11 08:23:13;;;;;;;58.97;20.47;;;;;0.10;100708.00;;;;5019855;28;20228;-72
2021/12/11 08:26:01;;;;;;;49.13;19.13;;;;;0.10;100712.00;;;;4990000;28;20713;-71
2021/12/11 08:28:48;;;;;;;44.83;18.43;;;;;0.10;100723.00;;;;4988081;28;20229;-73
2021/12/11 08:31:35;;;;;;;52.50;18.03;;;;;0.10;100726.00;;;;5006220;28;20241;-72
2021/12/11 08:34:23;;;;;;;52.23;17.77;;;;;0.10;100734.00;;;;4992405;28;20222;-72
2021/12/11 08:37:13;;;;;;;57.37;18.77;;;;;0.20;100735.00;;;;5013885;28;20283;-73
2021/12/11 08:39:59;;;;;;;77.10;29.70;;;;;0.20;100740.00;;;;5004044;28;20361;-71
2021/12/11 08:42:46;;;;;;;63.60;19.60;;;;;0.30;100741.00;;;;5002266;28;20361;-72
2021/12/11 08:45:45;;;;;;;54.63;18.90;;;;;0.40;100723.00;;;;4997198;28;20729;-73
2021/12/11 08:48:32;;;;;;;55.20;20.00;;;;;0.40;100752.00;;;;5002099;28;20238;-74
2021/12/11 08:51:23;;;;;;;65.40;20.80;;;;;0.60;100760.00;;;;5003576;28;20738;-69
2021/12/11 08:54:10;;;;;;;70.27;22.00;;;;;0.70;100761.00;;;;5005870;28;20319;-70
2021/12/11 08:56:59;;;;;;;75.90;24.07;;;;;0.60;100761.00;;;;5014521;28;20284;-73
2021/12/11 08:59:49;;;;;;;77.87;23.23;;;;;0.80;100763.00;;;;5002981;28;20312;-75
2021/12/11 09:02:38;;;;;;;76.53;23.90;;;;;0.90;100761.00;;;;5014493;28;20233;-70
2021/12/11 09:05:27;;;;;;;82.27;26.23;;;;;1.00;100761.00;;;;5012292;28;20293;-70
2021/12/11 09:08:18;;;;;;;77.27;23.33;;;;;0.80;100773.00;;;;5002340;28;21030;-72
2021/12/11 09:11:08;;;;;;;72.53;22.83;;;;;0.90;100755.00;;;;5006136;28;20791;-70
2021/12/11 09:13:59;;;;;;;79.20;25.17;;;;;0.90;100779.00;;;;5010520;28;20233;-73
2021/12/11 09:16:49;;;;;;;79.77;24.60;;;;;1.00;100783.00;;;;5002746;28;20757;-73
2021/12/11 09:19:40;;;;;;;79.80;23.63;;;;;1.10;100780.00;;;;5010894;28;20237;-74
2021/12/11 09:22:29;;;;;;;88.37;23.00;;;;;1.10;100782.00;;;;4988611;28;20242;-73
2021/12/11 09:25:23;;;;;;;82.60;23.90;;;;;1.10;100792.00;;;;5009989;28;20224;-74
2021/12/11 09:28:13;;;;;;;74.63;24.47;;;;;1.00;100796.00;;;;5012411;28;20296;-70
2021/12/11 09:31:07;;;;;;;80.40;23.63;;;;;1.10;100800.00;;;;5007973;28;20355;-74
2021/12/11 09:33:58;;;;;;;85.80;24.33;;;;;1.10;100806.00;;;;4998596;28;20701;-73
2021/12/11 09:36:47;;;;;;;93.70;25.40;;;;;1.10;100810.00;;;;4988072;28;20254;-71
2021/12/11 09:39:37;;;;;;;76.27;24.73;;;;;1.00;100812.00;;;;4997549;28;20443;-72
2021/12/11 09:42:23;;;;;;;78.80;23.37;;;;;1.10;100811.00;;;;4993703;28;20266;-72
2021/12/11 09:45:15;;;;;;;82.53;24.37;;;;;1.20;100818.00;;;;4984221;28;20246;-72
2021/12/11 09:48:05;;;;;;;72.53;22.70;;;;;1.20;100821.00;;;;4992356;28;20242;-73
2021/12/11 09:50:59;;;;;;;80.87;24.80;;;;;1.20;100817.00;;;;4997147;28;20304;-73
2021/12/11 09:53:49;;;;;;;85.57;23.70;;;;;1.30;100838.00;;;;4992010;28;20237;-69
2021/12/11 09:56:38;;;;;;;69.60;21.77;;;;;1.20;100832.00;;;;4997287;28;20277;-72
2021/12/11 09:59:30;;;;;;;76.33;20.93;;;;;1.20;100849.00;;;;4996702;28;20238;-72
2021/12/11 10:02:21;;;;;;;69.90;21.57;;;;;1.30;100855.00;;;;4988359;28;20230;-73
2021/12/11 10:05:28;;;;;;;76.07;21.93;;;;;1.20;100851.00;;;;5000009;28;20608;-73
2021/12/11 10:08:28;;;;;;;71.97;20.30;;;;;1.30;100839.00;;;;5008248;28;20236;-72
2021/12/11 10:11:18;;;;;;;75.87;22.27;;;;;1.30;100859.00;;;;5010842;28;20228;-72
2021/12/11 10:14:09;;;;;;;86.10;22.80;;;;;1.20;100858.00;;;;5002365;28;20734;-69
2021/12/11 10:16:59;;;;;;;101.10;28.73;;;;;1.20;100862.00;;;;4981097;28;20253;-72
2021/12/11 10:19:49;;;;;;;86.03;27.20;;;;;1.20;100871.00;;;;4985487;28;20222;-74
2021/12/11 10:22:39;;;;;;;108.10;32.07;;;;;1.20;100857.00;;;;5008087;28;20230;-74
2021/12/11 10:25:30;;;;;;;99.33;30.67;;;;;1.20;100876.00;;;;5004534;28;20277;-75
2021/12/11 10:28:23;;;;;;;97.87;30.93;;;;;1.20;100869.00;;;;4996256;28;20282;-74
2021/12/11 10:31:13;;;;;;;104.53;30.67;;;;;1.20;100868.00;;;;5026530;28;20226;-73
2021/12/11 10:34:03;;;;;;;115.73;35.43;;;;;1.20;100863.00;;;;5013984;28;20237;-76
2021/12/11 10:36:56;;;;;;;118.63;34.43;;;;;1.30;100870.00;;;;5004572;28;20250;-74
2021/12/11 10:39:45;;;;;;;112.30;31.50;;;;;1.30;100861.00;;;;5025970;28;20293;-73
2021/12/11 10:42:32;;;;;;;84.00;27.57;;;;;1.40;100866.00;;;;5043491;28;20280;-74
2021/12/11 10:45:20;;;;;;;90.07;25.83;;;;;1.50;100866.00;;;;5009862;28;20241;-74
2021/12/11 10:48:11;;;;;;;91.00;27.00;;;;;1.50;100870.00;;;;4997119;28;20259;-75
2021/12/11 10:51:01;;;;;;;86.33;26.83;;;;;1.60;100876.00;;;;5016573;28;20306;-73
2021/12/11 10:53:51;;;;;;;78.53;24.57;;;;;1.70;100872.00;;;;5026511;28;20232;-74
2021/12/11 10:56:38;;;;;;;104.43;26.63;;;;;1.80;100885.00;;;;5022210;28;20277;-73
2021/12/11 10:59:29;;;;;;;85.83;24.07;;;;;1.70;100886.00;;;;4991945;28;20230;-74
2021/12/11 11:02:18;;;;;;;80.77;23.47;;;;;1.90;100889.00;;;;5005735;28;20374;-74
2021/12/11 11:05:09;;;;;;;87.77;22.93;;;;;1.80;100859.00;;;;4988118;28;20251;-74
2021/12/11 11:07:56;;;;;;;99.47;28.33;;;;;1.80;100885.00;;;;4984879;28;20238;-73
2021/12/11 11:10:48;;;;;;;88.70;24.93;;;;;1.80;100887.00;;;;4997932;28;20365;-73
2021/12/11 11:13:34;;;;;;;71.47;23.87;;;;;1.90;100885.00;;;;4988367;28;20719;-74
2021/12/11 11:16:21;;;;;;;90.67;24.27;;;;;2.00;100890.00;;;;4993319;28;20328;-72
2021/12/11 11:19:10;;;;;;;77.47;23.93;;;;;1.90;100890.00;;;;5010343;28;20243;-73
2021/12/11 11:21:59;;;;;;;81.90;23.90;;;;;2.00;100893.00;;;;5006948;28;20281;-73
2021/12/11 11:24:54;;;;;;;89.40;25.00;;;;;2.00;100897.00;;;;5003733;28;20253;-73
2021/12/11 11:27:44;;;;;;;77.57;22.93;;;;;2.00;100903.00;;;;5007368;28;20323;-74
2021/12/11 11:30:35;;;;;;;80.37;23.70;;;;;1.90;100911.00;;;;4994325;28;20233;-74
2021/12/11 11:33:22;;;;;;;75.33;23.37;;;;;1.90;100913.00;;;;5010722;28;20248;-73
2021/12/11 11:36:14;;;;;;;71.03;22.90;;;;;2.00;100917.00;;;;5002420;28;20601;-70
2021/12/11 11:39:06;;;;;;;81.70;24.03;;;;;2.00;100925.00;;;;4996358;28;20362;-73
2021/12/11 11:41:55;;;;;;;93.40;25.80;;;;;2.10;100914.00;;;;4999125;28;20232;-74
2021/12/11 11:44:45;;;;;;;93.47;26.13;;;;;2.20;100912.00;;;;5008693;28;20233;-73
2021/12/11 11:47:32;;;;;;;120.00;33.33;;;;;2.20;100925.00;;;;5011045;28;20286;-74
2021/12/11 11:50:21;;;;;;;138.47;41.13;;;;;2.30;100925.00;;;;4990598;28;20246;-73
2021/12/11 11:53:08;;;;;;;106.20;32.27;;;;;2.30;100920.00;;;;5008250;28;20238;-74
2021/12/11 11:55:59;;;;;;;97.23;28.33;;;;;2.20;100925.00;;;;4999678;28;20229;-74
2021/12/11 11:58:45;;;;;;;93.47;28.33;;;;;2.30;100931.00;;;;4997271;28;20353;-75
2021/12/11 12:01:38;;;;;;;94.60;28.67;;;;;2.30;100939.00;;;;5015551;28;20233;-74
2021/12/11 12:04:25;;;;;;;91.20;26.10;;;;;2.20;100888.00;;;;4990429;28;20230;-74
2021/12/11 12:07:12;;;;;;;85.53;25.43;;;;;2.20;100948.00;;;;5001776;28;20745;-74
2021/12/11 12:10:02;;;;;;;85.20;25.27;;;;;2.30;100951.00;;;;4980655;28;20524;-75
2021/12/11 12:12:49;;;;;;;95.63;25.50;;;;;2.30;100964.00;;;;4978426;28;20227;-74
2021/12/11 12:15:39;;;;;;;91.37;26.47;;;;;2.30;100953.00;;;;4994369;28;20242;-74
2021/12/11 12:18:28;;;;;;;87.60;26.10;;;;;2.30;100955.00;;;;5004945;28;20714;-76
2021/12/11 12:21:17;;;;;;;88.20;25.97;;;;;2.50;100959.00;;;;4992863;28;20277;-73
2021/12/11 12:24:03;;;;;;;86.43;25.57;;;;;2.50;100950.00;;;;4999861;28;20721;-73
2021/12/11 12:26:51;;;;;;;85.70;25.37;;;;;2.40;100958.00;;;;5002554;28;20387;-74
2021/12/11 12:29:39;;;;;;;101.83;27.90;;;;;2.40;100956.00;;;;5005403;28;20437;-74
2021/12/11 12:32:29;;;;;;;84.63;25.00;;;;;2.50;100956.00;;;;4974588;28;20236;-74
2021/12/11 12:35:19;;;;;;;91.80;24.57;;;;;2.50;100964.00;;;;4995965;28;20233;-73
2021/12/11 12:38:08;;;;;;;101.20;27.53;;;;;2.50;100976.00;;;;5010224;28;20632;-74
2021/12/11 12:41:00;;;;;;;99.80;29.00;;;;;2.40;100981.00;;;;4987255;28;20234;-74
2021/12/11 12:47:19;;;;;;;94.03;28.80;;;;;2.50;100997.00;;;;5005234;28;20233;-72
2021/12/11 12:50:10;;;;;;;88.33;26.53;;;;;2.50;100995.00;;;;5003895;28;20241;-74
2021/12/11 12:52:59;;;;;;;90.47;27.10;;;;;2.50;100986.00;;;;5006786;28;20258;-72
2021/12/11 12:55:50;;;;;;;93.27;27.47;;;;;2.50;100999.00;;;;4986687;28;20222;-74
2021/12/11 12:58:40;;;;;;;84.90;26.33;;;;;2.50;100996.00;;;;5019265;28;20278;-73
2021/12/11 13:01:30;;;;;;;82.23;27.30;;;;;2.50;101008.00;;;;5022260;28;20704;-73
2021/12/11 13:04:21;;;;;;;92.27;27.90;;;;;2.50;101011.00;;;;4991729;28;20599;-73
2021/12/11 13:07:12;;;;;;;79.93;26.70;;;;;2.50;101012.00;;;;4999048;28;20234;-72
2021/12/11 13:10:02;;;;;;;82.07;26.50;;;;;2.50;101029.00;;;;4982528;28;20223;-73
2021/12/11 13:12:50;;;;;;;73.77;25.80;;;;;2.50;100979.00;;;;4993713;28;20230;-72
2021/12/11 13:15:41;;;;;;;76.83;25.00;;;;;2.40;101020.00;;;;5016242;28;20226;-71
2021/12/11 13:18:31;;;;;;;77.63;23.37;;;;;2.50;101020.00;;;;4988592;28;20255;-73
2021/12/11 13:21:23;;;;;;;79.23;23.63;;;;;2.50;101020.00;;;;4986235;28;20358;-73
2021/12/11 13:24:13;;;;;;;73.90;24.20;;;;;2.50;101015.00;;;;4999014;28;20342;-72
2021/12/11 13:27:06;;;;;;;80.60;25.60;;;;;2.50;101036.00;;;;4997596;28;20229;-74
2021/12/11 13:29:56;;;;;;;91.40;26.90;;;;;2.50;101030.00;;;;5001401;28;20241;-73
2021/12/11 13:32:43;;;;;;;86.17;27.83;;;;;2.50;101034.00;;;;4998227;28;20234;-72
2021/12/11 13:35:30;;;;;;;73.23;24.83;;;;;2.60;101045.00;;;;5008173;28;21003;-73
2021/12/11 13:38:22;;;;;;;77.40;24.90;;;;;2.50;101050.00;;;;5004444;28;20242;-73
2021/12/11 13:41:12;;;;;;;75.57;22.80;;;;;2.50;101057.00;;;;5001938;28;20713;-73
2021/12/11 13:43:59;;;;;;;68.03;23.30;;;;;2.50;101056.00;;;;4979355;28;20336;-73
2021/12/11 13:46:47;;;;;;;76.57;23.00;;;;;2.60;101059.00;;;;4989762;28;20223;-73
2021/12/11 13:49:33;;;;;;;71.97;23.07;;;;;2.60;101064.00;;;;5014205;28;20903;-72
2021/12/11 13:52:21;;;;;;;71.87;24.97;;;;;2.60;101053.00;;;;4990280;28;20282;-74
2021/12/11 13:55:10;;;;;;;93.13;27.47;;;;;2.60;101060.00;;;;4998966;28;20234;-75